sensor_id;sensor_type;location;lat;lon;timestamp;pressure;altitude;pressure_sealevel;temperature;humidity
29941;BME280;16801;53.562;10.038;2022-08-05T00:01:35;101350.53;;;21.66;72.85
29941;BME280;16801;53.562;10.038;2022-08-05T00:04:56;101353.94;;;21.89;72.77
29941;BME280;16801;53.562;10.038;2022-08-05T00:08:17;101361.25;;;22.03;71.59
29941;BME280;16801;53.562;10.038;2022-08-05T00:11:38;101367.03;;;21.87;72.22
29941;BME280;16801;53.562;10.038;2022-08-05T00:14:58;101369.75;;;22.08;71.30
29941;BME280;16801;53.562;10.038;2022-08-05T00:18:21;101375.19;;;22.02;71.70
29941;BME280;16801;53.562;10.038;2022-08-05T00:21:42;101374.88;;;21.90;71.17
29941;BME280;16801;53.562;10.038;2022-08-05T00:25:03;101358.06;;;22.00;70.30
29941;BME280;16801;53.562;10.038;2022-08-05T00:28:24;101363.03;;;21.90;70.45
29941;BME280;16801;53.562;10.038;2022-08-05T00:31:45;101373.19;;;22.17;69.12
29941;BME280;16801;53.562;10.038;2022-08-05T00:35:08;101372.31;;;21.89;69.18
29941;BME280;16801;53.562;10.038;2022-08-05T00:38:29;101362.03;;;21.76;68.62
29941;BME280;16801;53.562;10.038;2022-08-05T00:41:50;101345.97;;;21.94;68.31
29941;BME280;16801;53.562;10.038;2022-08-05T00:45:11;101368.75;;;21.74;68.31
29941;BME280;16801;53.562;10.038;2022-08-05T00:48:32;101378.66;;;21.89;66.97
29941;BME280;16801;53.562;10.038;2022-08-05T00:51:55;101386.34;;;21.79;66.48
29941;BME280;16801;53.562;10.038;2022-08-05T00:55:16;101382.97;;;21.77;66.10
29941;BME280;16801;53.562;10.038;2022-08-05T00:58:37;101390.25;;;21.49;65.86
29941;BME280;16801;53.562;10.038;2022-08-05T01:01:58;101386.28;;;21.52;66.31
29941;BME280;16801;53.562;10.038;2022-08-05T01:05:19;101380.78;;;21.52;64.72
29941;BME280;16801;53.562;10.038;2022-08-05T01:08:41;101392.25;;;21.19;66.31
29941;BME280;16801;53.562;10.038;2022-08-05T01:12:06;101385.34;;;21.44;65.49
29941;BME280;16801;53.562;10.038;2022-08-05T01:15:32;101375.44;;;21.65;64.74
29941;BME280;16801;53.562;10.038;2022-08-05T01:19:00;101381.13;;;21.42;65.27
29941;BME280;16801;53.562;10.038;2022-08-05T01:22:35;101375.94;;;21.54;64.68
29941;BME280;16801;53.562;10.038;2022-08-05T01:29:46;101370.66;;;21.73;65.08
29941;BME280;16801;53.562;10.038;2022-08-05T01:33:09;101363.09;;;21.54;64.36
29941;BME280;16801;53.562;10.038;2022-08-05T01:36:37;101332.31;;;21.80;63.34
29941;BME280;16801;53.562;10.038;2022-08-05T01:40:00;101313.03;;;21.52;63.48
29941;BME280;16801;53.562;10.038;2022-08-05T01:43:23;101332.31;;;21.37;63.64
29941;BME280;16801;53.562;10.038;2022-08-05T01:46:47;101331.91;;;21.40;64.10
29941;BME280;16801;53.562;10.038;2022-08-05T01:50:10;101313.03;;;21.31;64.43
29941;BME280;16801;53.562;10.038;2022-08-05T01:53:34;101275.66;;;21.51;63.57
29941;BME280;16801;53.562;10.038;2022-08-05T01:56:56;101269.38;;;21.57;63.52
29941;BME280;16801;53.562;10.038;2022-08-05T02:00:19;101263.38;;;21.26;63.68
29941;BME280;16801;53.562;10.038;2022-08-05T02:03:44;101264.50;;;21.31;64.40
29941;BME280;16801;53.562;10.038;2022-08-05T02:07:06;101270.22;;;20.94;64.98
29941;BME280;16801;53.562;10.038;2022-08-05T02:10:35;101283.06;;;20.94;65.15
29941;BME280;16801;53.562;10.038;2022-08-05T02:14:01;101271.44;;;21.06;64.91
29941;BME280;16801;53.562;10.038;2022-08-05T02:17:30;101260.97;;;21.16;64.57
29941;BME280;16801;53.562;10.038;2022-08-05T02:20:57;101237.91;;;21.32;64.24
29941;BME280;16801;53.562;10.038;2022-08-05T02:24:22;101223.34;;;21.53;62.88
29941;BME280;16801;53.562;10.038;2022-08-05T02:27:47;101228.13;;;21.44;63.39
29941;BME280;16801;53.562;10.038;2022-08-05T02:31:13;101246.75;;;21.48;63.38
29941;BME280;16801;53.562;10.038;2022-08-05T02:34:34;101238.75;;;21.32;62.78
29941;BME280;16801;53.562;10.038;2022-08-05T02:37:58;101259.41;;;21.28;63.72
29941;BME280;16801;53.562;10.038;2022-08-05T02:41:20;101277.16;;;21.32;62.71
29941;BME280;16801;53.562;10.038;2022-08-05T02:44:42;101362.03;;;20.40;65.72
29941;BME280;16801;53.562;10.038;2022-08-05T02:48:06;101368.00;;;20.06;66.73
29941;BME280;16801;53.562;10.038;2022-08-05T02:51:29;101334.34;;;20.49;67.01
29941;BME280;16801;53.562;10.038;2022-08-05T02:54:52;101314.50;;;20.47;68.84
29941;BME280;16801;53.562;10.038;2022-08-05T02:58:15;101277.81;;;20.78;68.88
29941;BME280;16801;53.562;10.038;2022-08-05T03:01:37;101268.94;;;20.97;68.54
29941;BME280;16801;53.562;10.038;2022-08-05T03:05:00;101275.09;;;20.99;69.21
29941;BME280;16801;53.562;10.038;2022-08-05T03:08:23;101297.38;;;20.75;70.52
29941;BME280;16801;53.562;10.038;2022-08-05T03:11:45;101293.88;;;20.66;70.70
29941;BME280;16801;53.562;10.038;2022-08-05T03:15:08;101290.03;;;20.60;71.71
29941;BME280;16801;53.562;10.038;2022-08-05T03:18:29;101288.63;;;20.50;71.37
29941;BME280;16801;53.562;10.038;2022-08-05T03:21:50;101273.88;;;20.36;72.00
29941;BME280;16801;53.562;10.038;2022-08-05T03:25:12;101282.97;;;20.37;72.45
29941;BME280;16801;53.562;10.038;2022-08-05T03:28:35;101301.66;;;20.48;72.07
29941;BME280;16801;53.562;10.038;2022-08-05T03:31:57;101318.56;;;20.51;71.78
29941;BME280;16801;53.562;10.038;2022-08-05T03:35:19;101307.91;;;20.56;71.19
29941;BME280;16801;53.562;10.038;2022-08-05T03:38:40;101315.16;;;20.64;71.05
29941;BME280;16801;53.562;10.038;2022-08-05T03:42:02;101312.97;;;20.59;71.15
29941;BME280;16801;53.562;10.038;2022-08-05T03:45:24;101320.31;;;20.15;72.66
29941;BME280;16801;53.562;10.038;2022-08-05T03:48:45;101310.94;;;19.95;73.71
29941;BME280;16801;53.562;10.038;2022-08-05T03:52:09;101308.97;;;20.04;73.48
29941;BME280;16801;53.562;10.038;2022-08-05T03:55:34;101294.44;;;20.18;72.45
29941;BME280;16801;53.562;10.038;2022-08-05T03:59:00;101282.53;;;19.81;73.04
29941;BME280;16801;53.562;10.038;2022-08-05T04:02:26;101296.03;;;19.98;73.64
29941;BME280;16801;53.562;10.038;2022-08-05T04:05:48;101296.59;;;19.93;73.41
29941;BME280;16801;53.562;10.038;2022-08-05T04:09:10;101303.50;;;20.04;72.67
29941;BME280;16801;53.562;10.038;2022-08-05T04:12:31;101313.34;;;20.13;72.73
29941;BME280;16801;53.562;10.038;2022-08-05T04:15:53;101299.75;;;20.19;72.52
29941;BME280;16801;53.562;10.038;2022-08-05T04:19:15;101300.66;;;19.97;72.55
29941;BME280;16801;53.562;10.038;2022-08-05T04:22:36;101299.44;;;20.00;73.57
29941;BME280;16801;53.562;10.038;2022-08-05T04:25:57;101305.47;;;19.95;73.26
29941;BME280;16801;53.562;10.038;2022-08-05T04:29:18;101309.06;;;19.58;74.37
29941;BME280;16801;53.562;10.038;2022-08-05T04:32:39;101319.72;;;19.90;73.65
29941;BME280;16801;53.562;10.038;2022-08-05T04:36:02;101329.34;;;20.01;72.45
29941;BME280;16801;53.562;10.038;2022-08-05T04:39:23;101318.50;;;20.08;72.98
29941;BME280;16801;53.562;10.038;2022-08-05T04:42:44;101317.44;;;19.79;74.16
29941;BME280;16801;53.562;10.038;2022-08-05T04:46:05;101344.84;;;19.71;74.52
29941;BME280;16801;53.562;10.038;2022-08-05T04:49:26;101347.97;;;20.06;73.46
29941;BME280;16801;53.562;10.038;2022-08-05T04:52:48;101347.66;;;20.01;72.89
29941;BME280;16801;53.562;10.038;2022-08-05T04:56:09;101351.25;;;20.01;73.18
29941;BME280;16801;53.562;10.038;2022-08-05T04:59:30;101368.97;;;19.90;73.46
29941;BME280;16801;53.562;10.038;2022-08-05T05:02:51;101385.50;;;20.20;72.10
29941;BME280;16801;53.562;10.038;2022-08-05T05:06:12;101385.75;;;20.10;72.93
29941;BME280;16801;53.562;10.038;2022-08-05T05:09:34;101403.56;;;20.06;72.85
29941;BME280;16801;53.562;10.038;2022-08-05T05:12:55;101408.28;;;19.98;73.08
29941;BME280;16801;53.562;10.038;2022-08-05T05:16:16;101406.94;;;19.93;72.87
29941;BME280;16801;53.562;10.038;2022-08-05T05:19:37;101391.09;;;20.26;71.50
29941;BME280;16801;53.562;10.038;2022-08-05T05:23:00;101388.56;;;20.54;69.71
29941;BME280;16801;53.562;10.038;2022-08-05T05:26:24;101379.28;;;20.40;70.64
29941;BME280;16801;53.562;10.038;2022-08-05T05:29:45;101372.34;;;20.52;68.93
29941;BME280;16801;53.562;10.038;2022-08-05T05:33:06;101383.19;;;20.46;70.04
29941;BME280;16801;53.562;10.038;2022-08-05T05:36:28;101377.63;;;20.54;69.90
29941;BME280;16801;53.562;10.038;2022-08-05T05:39:49;101378.38;;;20.48;70.74
29941;BME280;16801;53.562;10.038;2022-08-05T05:43:11;101384.78;;;20.03;71.27
29941;BME280;16801;53.562;10.038;2022-08-05T05:46:32;101403.78;;;20.05;71.61
29941;BME280;16801;53.562;10.038;2022-08-05T05:49:53;101386.84;;;20.01;71.01
29941;BME280;16801;53.562;10.038;2022-08-05T05:53:14;101380.63;;;20.07;71.93
29941;BME280;16801;53.562;10.038;2022-08-05T05:56:35;101379.59;;;20.08;71.30
29941;BME280;16801;53.562;10.038;2022-08-05T05:59:58;101388.56;;;20.02;72.38
29941;BME280;16801;53.562;10.038;2022-08-05T06:03:18;101418.00;;;20.00;72.41
29941;BME280;16801;53.562;10.038;2022-08-05T06:06:40;101418.16;;;19.99;71.92
29941;BME280;16801;53.562;10.038;2022-08-05T06:10:02;101431.72;;;19.69;72.14
29941;BME280;16801;53.562;10.038;2022-08-05T06:13:23;101412.72;;;19.76;72.88
29941;BME280;16801;53.562;10.038;2022-08-05T06:16:46;101402.91;;;20.04;72.09
29941;BME280;16801;53.562;10.038;2022-08-05T06:20:07;101402.63;;;20.14;72.16
29941;BME280;16801;53.562;10.038;2022-08-05T06:23:29;101402.22;;;20.25;71.16
29941;BME280;16801;53.562;10.038;2022-08-05T06:26:50;101392.84;;;20.56;70.62
29941;BME280;16801;53.562;10.038;2022-08-05T06:30:11;101395.06;;;20.53;69.70
29941;BME280;16801;53.562;10.038;2022-08-05T06:33:35;101415.00;;;20.47;70.39
29941;BME280;16801;53.562;10.038;2022-08-05T06:36:56;101421.34;;;20.47;70.64
29941;BME280;16801;53.562;10.038;2022-08-05T06:40:17;101406.63;;;20.63;68.92
29941;BME280;16801;53.562;10.038;2022-08-05T06:43:39;101391.13;;;20.85;68.69
29941;BME280;16801;53.562;10.038;2022-08-05T06:46:59;101398.09;;;21.16;67.20
29941;BME280;16801;53.562;10.038;2022-08-05T06:50:22;101406.03;;;20.82;68.79
29941;BME280;16801;53.562;10.038;2022-08-05T06:53:43;101391.81;;;21.37;68.06
29941;BME280;16801;53.562;10.038;2022-08-05T06:57:04;101398.25;;;21.86;65.46
29941;BME280;16801;53.562;10.038;2022-08-05T07:00:25;101405.56;;;21.79;65.59
29941;BME280;16801;53.562;10.038;2022-08-05T07:03:46;101425.47;;;22.02;65.68
29941;BME280;16801;53.562;10.038;2022-08-05T07:07:08;101424.03;;;22.06;65.62
29941;BME280;16801;53.562;10.038;2022-08-05T07:10:30;101422.00;;;22.15;64.77
29941;BME280;16801;53.562;10.038;2022-08-05T07:13:50;101422.72;;;22.02;63.75
29941;BME280;16801;53.562;10.038;2022-08-05T07:17:29;101415.22;;;21.54;66.30
29941;BME280;16801;53.562;10.038;2022-08-05T07:20:51;101416.56;;;21.43;66.73
29941;BME280;16801;53.562;10.038;2022-08-05T07:24:13;101421.88;;;21.45;66.75
29941;BME280;16801;53.562;10.038;2022-08-05T07:27:34;101408.88;;;21.54;66.41
29941;BME280;16801;53.562;10.038;2022-08-05T07:30:56;101412.72;;;21.38;67.39
29941;BME280;16801;53.562;10.038;2022-08-05T07:34:16;101416.63;;;21.29;68.12
29941;BME280;16801;53.562;10.038;2022-08-05T07:37:37;101418.84;;;21.04;67.94
29941;BME280;16801;53.562;10.038;2022-08-05T07:41:00;101415.13;;;21.12;67.83
29941;BME280;16801;53.562;10.038;2022-08-05T07:44:21;101412.56;;;20.96;68.82
29941;BME280;16801;53.562;10.038;2022-08-05T07:47:42;101414.09;;;21.13;68.38
29941;BME280;16801;53.562;10.038;2022-08-05T07:51:03;101408.22;;;20.87;69.43
29941;BME280;16801;53.562;10.038;2022-08-05T07:54:24;101405.28;;;20.88;68.32
29941;BME280;16801;53.562;10.038;2022-08-05T07:57:47;101419.59;;;20.84;69.18
29941;BME280;16801;53.562;10.038;2022-08-05T08:01:10;101434.44;;;21.04;68.63
29941;BME280;16801;53.562;10.038;2022-08-05T08:04:31;101432.13;;;21.22;67.17
29941;BME280;16801;53.562;10.038;2022-08-05T08:07:52;101433.31;;;21.13;67.83
29941;BME280;16801;53.562;10.038;2022-08-05T08:11:14;101419.84;;;20.89;69.58
29941;BME280;16801;53.562;10.038;2022-08-05T08:14:36;101413.69;;;20.87;69.48
29941;BME280;16801;53.562;10.038;2022-08-05T08:17:57;101429.03;;;20.81;69.75
29941;BME280;16801;53.562;10.038;2022-08-05T08:21:18;101424.19;;;20.98;69.24
29941;BME280;16801;53.562;10.038;2022-08-05T08:24:39;101412.69;;;20.88;70.06
29941;BME280;16801;53.562;10.038;2022-08-05T08:28:00;101419.47;;;20.77;69.99
29941;BME280;16801;53.562;10.038;2022-08-05T08:31:23;101421.06;;;20.86;68.78
29941;BME280;16801;53.562;10.038;2022-08-05T08:34:44;101427.16;;;20.82;69.66
29941;BME280;16801;53.562;10.038;2022-08-05T08:38:04;101419.84;;;20.74;69.40
29941;BME280;16801;53.562;10.038;2022-08-05T08:41:26;101424.47;;;20.88;69.41
29941;BME280;16801;53.562;10.038;2022-08-05T08:44:52;101430.13;;;20.57;70.18
29941;BME280;16801;53.562;10.038;2022-08-05T08:48:18;101433.28;;;20.69;70.46
29941;BME280;16801;53.562;10.038;2022-08-05T08:51:42;101446.97;;;20.54;71.00
29941;BME280;16801;53.562;10.038;2022-08-05T08:55:07;101452.34;;;20.62;69.21
29941;BME280;16801;53.562;10.038;2022-08-05T08:58:28;101456.44;;;20.81;68.85
29941;BME280;16801;53.562;10.038;2022-08-05T09:01:51;101464.88;;;20.42;70.70
29941;BME280;16801;53.562;10.038;2022-08-05T09:05:13;101473.16;;;20.12;71.17
29941;BME280;16801;53.562;10.038;2022-08-05T09:08:34;101473.16;;;20.12;70.21
29941;BME280;16801;53.562;10.038;2022-08-05T09:11:55;101481.94;;;20.30;70.98
29941;BME280;16801;53.562;10.038;2022-08-05T09:15:16;101477.25;;;20.38;70.41
29941;BME280;16801;53.562;10.038;2022-08-05T09:18:38;101481.84;;;20.60;70.06
29941;BME280;16801;53.562;10.038;2022-08-05T09:22:00;101490.63;;;20.56;68.92
29941;BME280;16801;53.562;10.038;2022-08-05T09:25:22;101495.13;;;20.49;69.63
29941;BME280;16801;53.562;10.038;2022-08-05T09:28:42;101491.66;;;20.69;68.84
29941;BME280;16801;53.562;10.038;2022-08-05T09:32:07;101478.63;;;20.86;68.61
29941;BME280;16801;53.562;10.038;2022-08-05T09:35:29;101479.38;;;20.80;67.97
29941;BME280;16801;53.562;10.038;2022-08-05T09:38:59;101474.75;;;20.81;68.11
29941;BME280;16801;53.562;10.038;2022-08-05T09:42:21;101475.81;;;20.94;67.39
29941;BME280;16801;53.562;10.038;2022-08-05T09:45:43;101479.81;;;21.06;66.81
29941;BME280;16801;53.562;10.038;2022-08-05T09:49:21;101468.84;;;21.21;65.38
29941;BME280;16801;53.562;10.038;2022-08-05T09:52:43;101467.78;;;21.22;64.72
29941;BME280;16801;53.562;10.038;2022-08-05T09:56:06;101470.16;;;21.10;65.20
29941;BME280;16801;53.562;10.038;2022-08-05T09:59:27;101457.84;;;20.92;65.89
29941;BME280;16801;53.562;10.038;2022-08-05T10:02:50;101462.00;;;20.73;66.56
29941;BME280;16801;53.562;10.038;2022-08-05T10:06:13;101464.47;;;20.97;66.58
29941;BME280;16801;53.562;10.038;2022-08-05T10:09:53;101467.78;;;21.22;65.68
29941;BME280;16801;53.562;10.038;2022-08-05T10:13:28;101475.00;;;21.23;65.58
29941;BME280;16801;53.562;10.038;2022-08-05T10:16:50;101485.78;;;21.10;65.98
29941;BME280;16801;53.562;10.038;2022-08-05T10:20:11;101495.38;;;20.77;67.14
29941;BME280;16801;53.562;10.038;2022-08-05T10:23:36;101504.97;;;20.58;67.95
29941;BME280;16801;53.562;10.038;2022-08-05T10:26:58;101502.50;;;20.48;68.11
29941;BME280;16801;53.562;10.038;2022-08-05T10:30:21;101498.66;;;20.12;70.23
29941;BME280;16801;53.562;10.038;2022-08-05T10:33:42;101501.06;;;20.38;69.74
29941;BME280;16801;53.562;10.038;2022-08-05T10:37:03;101493.19;;;20.35;69.05
29941;BME280;16801;53.562;10.038;2022-08-05T10:40:31;101506.97;;;20.27;70.59
29941;BME280;16801;53.562;10.038;2022-08-05T10:43:56;101507.00;;;20.41;69.97
29941;BME280;16801;53.562;10.038;2022-08-05T10:47:29;101514.72;;;20.60;67.40
29941;BME280;16801;53.562;10.038;2022-08-05T10:50:59;101526.88;;;20.21;69.92
29941;BME280;16801;53.562;10.038;2022-08-05T10:54:21;101513.19;;;20.21;69.92
29941;BME280;16801;53.562;10.038;2022-08-05T10:57:43;101516.38;;;20.47;69.34
29941;BME280;16801;53.562;10.038;2022-08-05T11:01:05;101520.84;;;20.17;70.52
29941;BME280;16801;53.562;10.038;2022-08-05T11:04:27;101535.72;;;20.00;70.83
29941;BME280;16801;53.562;10.038;2022-08-05T11:07:59;101554.81;;;20.08;70.70
29941;BME280;16801;53.562;10.038;2022-08-05T11:11:31;101574.34;;;20.05;70.30
29941;BME280;16801;53.562;10.038;2022-08-05T11:15:04;101562.38;;;20.06;71.49
29941;BME280;16801;53.562;10.038;2022-08-05T11:18:27;101563.38;;;20.05;72.26
29941;BME280;16801;53.562;10.038;2022-08-05T11:21:49;101564.44;;;20.04;72.30
29941;BME280;16801;53.562;10.038;2022-08-05T11:25:27;101578.03;;;20.20;71.39
29941;BME280;16801;53.562;10.038;2022-08-05T11:28:49;101579.31;;;20.02;70.97
29941;BME280;16801;53.562;10.038;2022-08-05T11:32:24;101581.50;;;19.83;70.79
29941;BME280;16801;53.562;10.038;2022-08-05T11:35:52;101580.25;;;19.94;69.54
29941;BME280;16801;53.562;10.038;2022-08-05T11:42:52;101591.59;;;19.36;70.63
29941;BME280;16801;53.562;10.038;2022-08-05T11:46:13;101594.09;;;19.54;70.59
29941;BME280;16801;53.562;10.038;2022-08-05T11:49:34;101599.31;;;19.71;71.91
29941;BME280;16801;53.562;10.038;2022-08-05T11:53:03;101594.69;;;20.03;69.97
29941;BME280;16801;53.562;10.038;2022-08-05T11:56:41;101606.44;;;20.19;68.68
29941;BME280;16801;53.562;10.038;2022-08-05T12:00:03;101605.50;;;20.35;68.61
29941;BME280;16801;53.562;10.038;2022-08-05T12:03:40;101604.22;;;20.23;69.54
29941;BME280;16801;53.562;10.038;2022-08-05T12:07:01;101607.81;;;20.23;70.37
29941;BME280;16801;53.562;10.038;2022-08-05T12:10:24;101612.91;;;20.26;70.48
29941;BME280;16801;53.562;10.038;2022-08-05T12:13:54;101629.28;;;20.34;70.64
29941;BME280;16801;53.562;10.038;2022-08-05T12:17:15;101626.09;;;19.92;70.79
29941;BME280;16801;53.562;10.038;2022-08-05T12:20:36;101634.53;;;19.74;71.08
29941;BME280;16801;53.562;10.038;2022-08-05T12:24:00;101626.06;;;20.00;70.89
29941;BME280;16801;53.562;10.038;2022-08-05T12:27:22;101638.59;;;20.17;69.23
29941;BME280;16801;53.562;10.038;2022-08-05T12:30:44;101639.09;;;20.51;68.42
29941;BME280;16801;53.562;10.038;2022-08-05T12:34:06;101634.69;;;20.73;67.52
29941;BME280;16801;53.562;10.038;2022-08-05T12:37:28;101634.66;;;20.96;67.34
29941;BME280;16801;53.562;10.038;2022-08-05T12:40:49;101627.09;;;20.98;67.91
29941;BME280;16801;53.562;10.038;2022-08-05T12:44:11;101618.63;;;21.07;65.65
29941;BME280;16801;53.562;10.038;2022-08-05T12:47:34;101635.22;;;20.68;67.46
29941;BME280;16801;53.562;10.038;2022-08-05T12:51:13;101637.66;;;21.01;69.04
29941;BME280;16801;53.562;10.038;2022-08-05T12:54:35;101634.88;;;20.86;66.72
29941;BME280;16801;53.562;10.038;2022-08-05T12:57:58;101632.38;;;21.36;67.01
29941;BME280;16801;53.562;10.038;2022-08-05T13:01:21;101628.81;;;21.94;65.26
29941;BME280;16801;53.562;10.038;2022-08-05T13:04:44;101623.16;;;22.74;63.12
29941;BME280;16801;53.562;10.038;2022-08-05T13:08:05;101627.44;;;23.25;61.94
29941;BME280;16801;53.562;10.038;2022-08-05T13:11:27;101626.53;;;22.90;60.37
29941;BME280;16801;53.562;10.038;2022-08-05T13:14:51;101623.50;;;26.19;51.39
29941;BME280;16801;53.562;10.038;2022-08-05T13:18:12;101632.78;;;26.37;50.66
29941;BME280;16801;53.562;10.038;2022-08-05T13:21:34;101631.09;;;30.02;41.63
29941;BME280;16801;53.562;10.038;2022-08-05T13:24:59;101632.78;;;28.39;43.75
29941;BME280;16801;53.562;10.038;2022-08-05T13:28:20;101633.19;;;27.28;46.52
29941;BME280;16801;53.562;10.038;2022-08-05T13:31:42;101633.34;;;26.08;52.37
29941;BME280;16801;53.562;10.038;2022-08-05T13:35:04;101645.66;;;24.35;53.48
29941;BME280;16801;53.562;10.038;2022-08-05T13:38:27;101647.34;;;23.27;57.11
29941;BME280;16801;53.562;10.038;2022-08-05T13:41:48;101638.50;;;22.83;57.03
29941;BME280;16801;53.562;10.038;2022-08-05T13:45:09;101630.97;;;22.70;59.82
29941;BME280;16801;53.562;10.038;2022-08-05T13:48:30;101614.22;;;23.14;58.03
29941;BME280;16801;53.562;10.038;2022-08-05T13:51:51;101622.31;;;23.22;58.76
29941;BME280;16801;53.562;10.038;2022-08-05T13:55:13;101626.56;;;23.25;57.00
29941;BME280;16801;53.562;10.038;2022-08-05T13:58:34;101619.38;;;23.86;54.50
29941;BME280;16801;53.562;10.038;2022-08-05T14:01:56;101617.16;;;25.28;51.61
29941;BME280;16801;53.562;10.038;2022-08-05T14:05:18;101622.03;;;25.00;51.84
29941;BME280;16801;53.562;10.038;2022-08-05T14:08:39;101622.91;;;23.73;54.12
29941;BME280;16801;53.562;10.038;2022-08-05T14:12:02;101627.44;;;23.25;55.71
29941;BME280;16801;53.562;10.038;2022-08-05T14:15:24;101625.75;;;22.40;56.83
29941;BME280;16801;53.562;10.038;2022-08-05T14:18:45;101632.47;;;21.72;60.24
29941;BME280;16801;53.562;10.038;2022-08-05T14:22:06;101634.91;;;22.25;60.01
29941;BME280;16801;53.562;10.038;2022-08-05T14:25:27;101644.00;;;22.11;59.74
29941;BME280;16801;53.562;10.038;2022-08-05T14:28:49;101643.00;;;21.69;60.60
29941;BME280;16801;53.562;10.038;2022-08-05T14:32:10;101630.19;;;22.19;58.96
29941;BME280;16801;53.562;10.038;2022-08-05T14:35:31;101628.47;;;22.18;60.39
29941;BME280;16801;53.562;10.038;2022-08-05T14:38:52;101629.41;;;22.25;60.18
29941;BME280;16801;53.562;10.038;2022-08-05T14:42:13;101623.06;;;22.61;59.74
29941;BME280;16801;53.562;10.038;2022-08-05T14:45:36;101628.72;;;21.73;61.33
29941;BME280;16801;53.562;10.038;2022-08-05T14:48:59;101625.19;;;21.79;61.29
29941;BME280;16801;53.562;10.038;2022-08-05T14:52:21;101631.38;;;21.96;60.98
29941;BME280;16801;53.562;10.038;2022-08-05T14:55:42;101635.31;;;21.79;61.64
29941;BME280;16801;53.562;10.038;2022-08-05T14:59:03;101645.28;;;22.09;60.45
29941;BME280;16801;53.562;10.038;2022-08-05T15:02:25;101646.78;;;23.11;58.53
29941;BME280;16801;53.562;10.038;2022-08-05T15:05:46;101652.16;;;22.97;58.75
29941;BME280;16801;53.562;10.038;2022-08-05T15:09:07;101658.00;;;22.31;60.67
29941;BME280;16801;53.562;10.038;2022-08-05T15:12:28;101654.09;;;21.09;63.08
29941;BME280;16801;53.562;10.038;2022-08-05T15:15:49;101639.78;;;23.08;59.49
29941;BME280;16801;53.562;10.038;2022-08-05T15:19:12;101637.38;;;23.26;57.32
29941;BME280;16801;53.562;10.038;2022-08-05T15:22:32;101630.47;;;22.46;59.27
29941;BME280;16801;53.562;10.038;2022-08-05T15:25:53;101630.94;;;22.13;60.24
29941;BME280;16801;53.562;10.038;2022-08-05T15:29:14;101647.03;;;21.29;60.84
29941;BME280;16801;53.562;10.038;2022-08-05T15:32:35;101657.81;;;20.48;63.96
29941;BME280;16801;53.562;10.038;2022-08-05T15:35:57;101644.56;;;20.97;63.39
29941;BME280;16801;53.562;10.038;2022-08-05T15:39:18;101648.13;;;21.05;63.95
29941;BME280;16801;53.562;10.038;2022-08-05T15:42:39;101704.09;;;21.33;64.15
29941;BME280;16801;53.562;10.038;2022-08-05T15:46:00;101710.84;;;21.08;67.03
29941;BME280;16801;53.562;10.038;2022-08-05T15:49:21;101713.50;;;20.94;67.52
29941;BME280;16801;53.562;10.038;2022-08-05T15:52:43;101719.97;;;20.47;69.95
29941;BME280;16801;53.562;10.038;2022-08-05T15:56:05;101711.81;;;21.30;66.34
29941;BME280;16801;53.562;10.038;2022-08-05T15:59:26;101709.47;;;22.08;65.74
29941;BME280;16801;53.562;10.038;2022-08-05T16:02:47;101716.00;;;22.36;63.70
29941;BME280;16801;53.562;10.038;2022-08-05T16:06:08;101706.97;;;22.42;63.37
29941;BME280;16801;53.562;10.038;2022-08-05T16:09:31;101715.00;;;22.58;61.87
29941;BME280;16801;53.562;10.038;2022-08-05T16:12:52;101717.81;;;22.14;62.69
29941;BME280;16801;53.562;10.038;2022-08-05T16:16:13;101715.94;;;22.65;61.75
29941;BME280;16801;53.562;10.038;2022-08-05T16:19:35;101721.38;;;22.59;58.70
29941;BME280;16801;53.562;10.038;2022-08-05T16:22:55;101721.25;;;22.67;58.53
29941;BME280;16801;53.562;10.038;2022-08-05T16:26:18;101723.41;;;22.21;58.85
29941;BME280;16801;53.562;10.038;2022-08-05T16:29:39;101734.66;;;21.97;60.76
29941;BME280;16801;53.562;10.038;2022-08-05T16:33:00;101729.09;;;21.53;60.09
29941;BME280;16801;53.562;10.038;2022-08-05T16:36:21;101741.41;;;21.20;61.20
29941;BME280;16801;53.562;10.038;2022-08-05T16:39:42;101742.38;;;21.27;59.18
29941;BME280;16801;53.562;10.038;2022-08-05T16:43:05;101742.75;;;21.24;58.11
29941;BME280;16801;53.562;10.038;2022-08-05T16:46:26;101744.56;;;21.69;56.98
29941;BME280;16801;53.562;10.038;2022-08-05T16:49:47;101749.63;;;21.57;56.69
29941;BME280;16801;53.562;10.038;2022-08-05T16:53:08;101757.69;;;21.96;56.64
29941;BME280;16801;53.562;10.038;2022-08-05T16:56:30;101759.91;;;21.40;54.51
29941;BME280;16801;53.562;10.038;2022-08-05T16:59:53;101761.91;;;21.46;54.59
29941;BME280;16801;53.562;10.038;2022-08-05T17:03:14;101767.69;;;21.37;54.70
29941;BME280;16801;53.562;10.038;2022-08-05T17:06:36;101754.44;;;21.18;54.34
29941;BME280;16801;53.562;10.038;2022-08-05T17:09:56;101764.34;;;21.27;53.94
29941;BME280;16801;53.562;10.038;2022-08-05T17:13:17;101779.88;;;21.12;55.37
29941;BME280;16801;53.562;10.038;2022-08-05T17:16:40;101776.19;;;21.05;56.14
29941;BME280;16801;53.562;10.038;2022-08-05T17:20:03;101777.19;;;20.73;56.61
29941;BME280;16801;53.562;10.038;2022-08-05T17:23:25;101782.72;;;20.26;57.12
29941;BME280;16801;53.562;10.038;2022-08-05T17:26:46;101793.03;;;20.63;57.34
29941;BME280;16801;53.562;10.038;2022-08-05T17:30:08;101789.66;;;20.84;58.38
29941;BME280;16801;53.562;10.038;2022-08-05T17:33:34;101808.19;;;20.35;59.48